sensor_id;sensor_type;location;lat;lon;timestamp;pressure;altitude;pressure_sealevel;temperature;humidity
79006;BME280;69202;45.498;-73.582;2023-11-25T00:00:50;101752.25;;;3.76;48.23
79006;BME280;69202;45.498;-73.582;2023-11-25T00:03:16;101739.66;;;3.67;49.31
79006;BME280;69202;45.498;-73.582;2023-11-25T00:05:42;101751.91;;;3.69;48.47
79006;BME280;69202;45.498;-73.582;2023-11-25T00:08:09;101757.69;;;3.74;49.05
79006;BME280;69202;45.498;-73.582;2023-11-25T00:10:36;101764.88;;;3.74;50.11
79006;BME280;69202;45.498;-73.582;2023-11-25T00:13:02;101761.34;;;3.73;49.61
79006;BME280;69202;45.498;-73.582;2023-11-25T00:15:29;101763.75;;;3.56;48.00
79006;BME280;69202;45.498;-73.582;2023-11-25T00:17:55;101755.78;;;3.44;46.59
79006;BME280;69202;45.498;-73.582;2023-11-25T00:20:22;101756.78;;;3.32;46.83
79006;BME280;69202;45.498;-73.582;2023-11-25T00:22:49;101758.75;;;3.30;48.60
79006;BME280;69202;45.498;-73.582;2023-11-25T00:25:15;101758.03;;;3.28;47.92
79006;BME280;69202;45.498;-73.582;2023-11-25T00:27:42;101766.63;;;3.32;47.57
79006;BME280;69202;45.498;-73.582;2023-11-25T00:30:08;101767.81;;;3.39;49.25
79006;BME280;69202;45.498;-73.582;2023-11-25T00:32:34;101759.22;;;3.35;48.14
79006;BME280;69202;45.498;-73.582;2023-11-25T00:35:06;101776.25;;;3.34;48.49
79006;BME280;69202;45.498;-73.582;2023-11-25T00:37:33;101784.53;;;3.20;46.17
79006;BME280;69202;45.498;-73.582;2023-11-25T00:40:01;101766.47;;;3.01;44.17
79006;BME280;69202;45.498;-73.582;2023-11-25T00:42:30;101738.72;;;2.70;45.25
79006;BME280;69202;45.498;-73.582;2023-11-25T00:45:00;101777.91;;;2.81;46.17
79006;BME280;69202;45.498;-73.582;2023-11-25T00:47:26;101780.47;;;2.82;46.75
79006;BME280;69202;45.498;-73.582;2023-11-25T00:49:53;101756.69;;;2.57;46.11
79006;BME280;69202;45.498;-73.582;2023-11-25T00:52:20;101784.94;;;2.71;47.44
79006;BME280;69202;45.498;-73.582;2023-11-25T00:54:46;101787.88;;;2.79;48.26
79006;BME280;69202;45.498;-73.582;2023-11-25T00:57:12;101779.56;;;3.15;51.20
79006;BME280;69202;45.498;-73.582;2023-11-25T00:59:38;101781.50;;;3.25;48.32
79006;BME280;69202;45.498;-73.582;2023-11-25T01:02:04;101779.59;;;3.04;46.82
79006;BME280;69202;45.498;-73.582;2023-11-25T01:04:31;101789.53;;;3.13;47.80
79006;BME280;69202;45.498;-73.582;2023-11-25T01:06:57;101777.16;;;3.01;47.48
79006;BME280;69202;45.498;-73.582;2023-11-25T01:09:23;101777.28;;;2.88;44.42
79006;BME280;69202;45.498;-73.582;2023-11-25T01:11:51;101771.13;;;2.66;45.09
79006;BME280;69202;45.498;-73.582;2023-11-25T01:14:20;101768.59;;;2.53;44.96
79006;BME280;69202;45.498;-73.582;2023-11-25T01:16:46;101768.94;;;2.48;45.96
79006;BME280;69202;45.498;-73.582;2023-11-25T01:19:12;101767.25;;;2.58;48.58
79006;BME280;69202;45.498;-73.582;2023-11-25T01:21:38;101771.50;;;2.83;50.31
79006;BME280;69202;45.498;-73.582;2023-11-25T01:24:04;101763.09;;;2.88;49.63
79006;BME280;69202;45.498;-73.582;2023-11-25T01:26:32;101766.75;;;2.76;47.62
79006;BME280;69202;45.498;-73.582;2023-11-25T01:28:58;101772.22;;;2.63;46.40
79006;BME280;69202;45.498;-73.582;2023-11-25T01:31:24;101701.38;;;2.25;49.20
79006;BME280;69202;45.498;-73.582;2023-11-25T01:33:52;101765.78;;;2.66;47.20
79006;BME280;69202;45.498;-73.582;2023-11-25T01:36:18;101772.72;;;2.57;46.61
79006;BME280;69202;45.498;-73.582;2023-11-25T01:38:45;101766.53;;;2.45;46.22
79006;BME280;69202;45.498;-73.582;2023-11-25T01:41:11;101779.88;;;2.45;46.48
79006;BME280;69202;45.498;-73.582;2023-11-25T01:43:37;101772.25;;;2.41;45.74
79006;BME280;69202;45.498;-73.582;2023-11-25T01:46:04;101780.13;;;2.31;45.70
79006;BME280;69202;45.498;-73.582;2023-11-25T01:48:32;101787.00;;;2.22;44.96
79006;BME280;69202;45.498;-73.582;2023-11-25T01:50:59;101778.63;;;2.16;45.47
79006;BME280;69202;45.498;-73.582;2023-11-25T01:53:30;101785.78;;;2.15;45.75
79006;BME280;69202;45.498;-73.582;2023-11-25T01:55:58;101774.00;;;2.07;45.43
79006;BME280;69202;45.498;-73.582;2023-11-25T01:58:24;101788.19;;;2.07;45.95
79006;BME280;69202;45.498;-73.582;2023-11-25T02:00:52;101782.59;;;1.99;45.90
79006;BME280;69202;45.498;-73.582;2023-11-25T02:03:18;101794.13;;;1.99;46.74
79006;BME280;69202;45.498;-73.582;2023-11-25T02:05:46;101785.16;;;2.00;46.30
79006;BME280;69202;45.498;-73.582;2023-11-25T02:08:12;101793.28;;;2.10;47.63
79006;BME280;69202;45.498;-73.582;2023-11-25T02:10:38;101797.56;;;2.24;49.39
79006;BME280;69202;45.498;-73.582;2023-11-25T02:13:06;101792.59;;;2.30;49.16
79006;BME280;69202;45.498;-73.582;2023-11-25T02:15:37;101804.34;;;2.28;49.12
79006;BME280;69202;45.498;-73.582;2023-11-25T02:18:04;101799.50;;;2.33;49.12
79006;BME280;69202;45.498;-73.582;2023-11-25T02:20:33;101799.13;;;2.26;46.78
79006;BME280;69202;45.498;-73.582;2023-11-25T02:23:02;101804.47;;;2.26;47.44
79006;BME280;69202;45.498;-73.582;2023-11-25T02:25:28;101785.53;;;2.18;49.80
79006;BME280;69202;45.498;-73.582;2023-11-25T02:27:55;101807.53;;;2.33;47.29
79006;BME280;69202;45.498;-73.582;2023-11-25T02:30:22;101786.88;;;2.13;48.70
79006;BME280;69202;45.498;-73.582;2023-11-25T02:32:52;101826.34;;;2.43;48.91
79006;BME280;69202;45.498;-73.582;2023-11-25T02:35:19;101820.03;;;2.44;48.55
79006;BME280;69202;45.498;-73.582;2023-11-25T02:37:46;101824.72;;;2.29;47.35
79006;BME280;69202;45.498;-73.582;2023-11-25T02:40:13;101822.41;;;2.24;47.13
79006;BME280;69202;45.498;-73.582;2023-11-25T02:42:45;101809.19;;;2.23;48.38
79006;BME280;69202;45.498;-73.582;2023-11-25T02:45:19;101835.19;;;2.43;51.18
79006;BME280;69202;45.498;-73.582;2023-11-25T02:47:49;101823.19;;;2.94;51.16
79006;BME280;69202;45.498;-73.582;2023-11-25T02:50:16;101836.69;;;2.92;50.49
79006;BME280;69202;45.498;-73.582;2023-11-25T02:52:43;101827.31;;;2.64;47.17
79006;BME280;69202;45.498;-73.582;2023-11-25T02:55:09;101832.53;;;2.43;48.11
79006;BME280;69202;45.498;-73.582;2023-11-25T02:57:40;101841.75;;;2.50;49.99
79006;BME280;69202;45.498;-73.582;2023-11-25T03:00:11;101840.53;;;2.43;47.28
79006;BME280;69202;45.498;-73.582;2023-11-25T03:02:45;101842.31;;;2.20;46.41
79006;BME280;69202;45.498;-73.582;2023-11-25T03:05:12;101838.97;;;2.06;47.87
79006;BME280;69202;45.498;-73.582;2023-11-25T03:07:39;101859.16;;;2.21;49.97
79006;BME280;69202;45.498;-73.582;2023-11-25T03:10:07;101851.19;;;2.32;50.94
79006;BME280;69202;45.498;-73.582;2023-11-25T03:12:34;101849.41;;;2.55;51.82
79006;BME280;69202;45.498;-73.582;2023-11-25T03:15:00;101826.66;;;2.27;48.69
79006;BME280;69202;45.498;-73.582;2023-11-25T03:17:26;101856.63;;;2.19;46.81
79006;BME280;69202;45.498;-73.582;2023-11-25T03:19:53;101857.19;;;2.12;48.04
79006;BME280;69202;45.498;-73.582;2023-11-25T03:22:19;101678.63;;;0.94;47.82
79006;BME280;69202;45.498;-73.582;2023-11-25T03:24:45;101869.28;;;2.05;47.67
79006;BME280;69202;45.498;-73.582;2023-11-25T03:27:12;101880.13;;;2.14;48.59
79006;BME280;69202;45.498;-73.582;2023-11-25T03:29:39;101877.81;;;1.86;46.02
79006;BME280;69202;45.498;-73.582;2023-11-25T03:32:05;101897.91;;;1.79;46.63
79006;BME280;69202;45.498;-73.582;2023-11-25T03:34:31;101886.00;;;1.71;47.59
79006;BME280;69202;45.498;-73.582;2023-11-25T03:36:57;101895.94;;;2.40;50.52
79006;BME280;69202;45.498;-73.582;2023-11-25T03:39:24;101894.78;;;2.09;46.26
79006;BME280;69202;45.498;-73.582;2023-11-25T03:41:52;101896.19;;;2.01;49.95
79006;BME280;69202;45.498;-73.582;2023-11-25T03:44:19;101900.41;;;2.28;50.93
79006;BME280;69202;45.498;-73.582;2023-11-25T03:46:46;101902.19;;;2.16;45.37
79006;BME280;69202;45.498;-73.582;2023-11-25T03:49:13;101910.72;;;1.73;43.93
79006;BME280;69202;45.498;-73.582;2023-11-25T03:51:39;101907.56;;;1.56;45.46
79006;BME280;69202;45.498;-73.582;2023-11-25T03:54:05;101913.41;;;1.37;45.52
79006;BME280;69202;45.498;-73.582;2023-11-25T03:56:32;101920.13;;;1.30;45.80
79006;BME280;69202;45.498;-73.582;2023-11-25T03:58:58;101916.31;;;1.21;47.52
79006;BME280;69202;45.498;-73.582;2023-11-25T04:01:24;101933.19;;;1.45;50.17
79006;BME280;69202;45.498;-73.582;2023-11-25T04:03:50;101947.13;;;1.62;49.72
79006;BME280;69202;45.498;-73.582;2023-11-25T04:06:16;101950.78;;;1.48;46.07
79006;BME280;69202;45.498;-73.582;2023-11-25T04:08:42;101954.56;;;1.20;45.06
79006;BME280;69202;45.498;-73.582;2023-11-25T04:11:08;101955.00;;;1.01;46.15
79006;BME280;69202;45.498;-73.582;2023-11-25T04:13:35;101957.34;;;1.19;49.15
79006;BME280;69202;45.498;-73.582;2023-11-25T04:16:01;101959.66;;;1.23;50.16
79006;BME280;69202;45.498;-73.582;2023-11-25T04:18:27;101958.38;;;1.41;51.74
79006;BME280;69202;45.498;-73.582;2023-11-25T04:20:52;101956.56;;;1.42;49.56
79006;BME280;69202;45.498;-73.582;2023-11-25T04:23:19;101963.75;;;1.65;52.15
79006;BME280;69202;45.498;-73.582;2023-11-25T04:25:45;101970.41;;;1.84;50.56
79006;BME280;69202;45.498;-73.582;2023-11-25T04:28:11;101959.97;;;1.81;50.70
79006;BME280;69202;45.498;-73.582;2023-11-25T04:30:41;101967.16;;;1.67;47.71
79006;BME280;69202;45.498;-73.582;2023-11-25T04:33:08;101974.50;;;1.64;48.62
79006;BME280;69202;45.498;-73.582;2023-11-25T04:35:38;101969.66;;;1.45;46.92
79006;BME280;69202;45.498;-73.582;2023-11-25T04:38:04;101958.94;;;1.21;46.47
79006;BME280;69202;45.498;-73.582;2023-11-25T04:40:31;101978.78;;;1.04;45.12
79006;BME280;69202;45.498;-73.582;2023-11-25T04:42:58;101981.00;;;1.10;49.24
79006;BME280;69202;45.498;-73.582;2023-11-25T04:45:26;101971.34;;;1.59;51.26
79006;BME280;69202;45.498;-73.582;2023-11-25T04:47:52;101991.13;;;2.04;52.67
79006;BME280;69202;45.498;-73.582;2023-11-25T04:50:19;102000.22;;;2.01;48.84
79006;BME280;69202;45.498;-73.582;2023-11-25T04:52:52;101998.97;;;2.42;52.69
79006;BME280;69202;45.498;-73.582;2023-11-25T04:55:18;101993.56;;;2.55;51.44
79006;BME280;69202;45.498;-73.582;2023-11-25T04:57:44;101990.91;;;2.31;50.55
79006;BME280;69202;45.498;-73.582;2023-11-25T05:00:11;101998.34;;;2.15;50.53
79006;BME280;69202;45.498;-73.582;2023-11-25T05:02:39;102003.13;;;2.22;50.86
79006;BME280;69202;45.498;-73.582;2023-11-25T05:05:06;101969.69;;;2.06;47.93
79006;BME280;69202;45.498;-73.582;2023-11-25T05:07:33;102010.34;;;1.96;47.40
79006;BME280;69202;45.498;-73.582;2023-11-25T05:10:03;102011.78;;;1.89;48.90
79006;BME280;69202;45.498;-73.582;2023-11-25T05:12:35;102021.59;;;1.89;48.48
79006;BME280;69202;45.498;-73.582;2023-11-25T05:15:07;102013.00;;;1.72;48.10
79006;BME280;69202;45.498;-73.582;2023-11-25T05:17:39;102013.34;;;1.55;47.13
79006;BME280;69202;45.498;-73.582;2023-11-25T05:20:05;102020.47;;;1.55;47.77
79006;BME280;69202;45.498;-73.582;2023-11-25T05:22:35;102019.44;;;1.32;46.06
79006;BME280;69202;45.498;-73.582;2023-11-25T05:25:01;102006.66;;;1.11;46.97
79006;BME280;69202;45.498;-73.582;2023-11-25T05:27:27;102015.41;;;1.13;46.59
79006;BME280;69202;45.498;-73.582;2023-11-25T05:29:54;102012.94;;;0.98;46.55
79006;BME280;69202;45.498;-73.582;2023-11-25T05:32:20;102015.63;;;0.98;48.08
79006;BME280;69202;45.498;-73.582;2023-11-25T05:34:48;102014.13;;;1.06;47.97
79006;BME280;69202;45.498;-73.582;2023-11-25T05:37:15;102021.69;;;0.87;47.05
79006;BME280;69202;45.498;-73.582;2023-11-25T05:39:40;102013.13;;;0.69;46.01
79006;BME280;69202;45.498;-73.582;2023-11-25T05:42:07;102032.19;;;0.63;47.41
79006;BME280;69202;45.498;-73.582;2023-11-25T05:44:33;102042.91;;;0.62;45.70
79006;BME280;69202;45.498;-73.582;2023-11-25T05:46:59;102037.31;;;0.39;45.45
79006;BME280;69202;45.498;-73.582;2023-11-25T05:49:25;102051.13;;;0.32;45.30
79006;BME280;69202;45.498;-73.582;2023-11-25T05:51:52;102047.91;;;0.26;46.55
79006;BME280;69202;45.498;-73.582;2023-11-25T05:54:19;102048.75;;;0.27;48.04
79006;BME280;69202;45.498;-73.582;2023-11-25T05:56:46;102050.78;;;0.23;46.54
79006;BME280;69202;45.498;-73.582;2023-11-25T05:59:14;102046.69;;;0.18;48.28
79006;BME280;69202;45.498;-73.582;2023-11-25T06:01:42;102062.19;;;0.38;48.65
79006;BME280;69202;45.498;-73.582;2023-11-25T06:04:08;102059.25;;;0.43;49.41
79006;BME280;69202;45.498;-73.582;2023-11-25T06:06:34;102066.81;;;0.49;47.49
79006;BME280;69202;45.498;-73.582;2023-11-25T06:09:00;102060.22;;;0.42;47.55
79006;BME280;69202;45.498;-73.582;2023-11-25T06:11:27;102067.97;;;0.45;48.23
79006;BME280;69202;45.498;-73.582;2023-11-25T06:13:58;102054.97;;;0.40;47.52
79006;BME280;69202;45.498;-73.582;2023-11-25T06:16:25;102067.72;;;0.35;47.23
79006;BME280;69202;45.498;-73.582;2023-11-25T06:18:51;102071.84;;;0.53;49.31
79006;BME280;69202;45.498;-73.582;2023-11-25T06:21:20;102073.66;;;0.53;48.00
79006;BME280;69202;45.498;-73.582;2023-11-25T06:23:47;102071.28;;;0.48;47.95
79006;BME280;69202;45.498;-73.582;2023-11-25T06:26:14;102068.88;;;0.58;49.70
79006;BME280;69202;45.498;-73.582;2023-11-25T06:28:41;102080.38;;;0.58;47.86
79006;BME280;69202;45.498;-73.582;2023-11-25T06:31:08;102082.88;;;0.47;46.87
79006;BME280;69202;45.498;-73.582;2023-11-25T06:33:34;102090.72;;;0.36;46.72
79006;BME280;69202;45.498;-73.582;2023-11-25T06:36:07;102084.81;;;0.31;48.03
79006;BME280;69202;45.498;-73.582;2023-11-25T06:38:34;102065.03;;;0.08;46.42
79006;BME280;69202;45.498;-73.582;2023-11-25T06:41:00;102097.69;;;0.10;46.58
79006;BME280;69202;45.498;-73.582;2023-11-25T06:43:30;102104.75;;;0.11;47.36
79006;BME280;69202;45.498;-73.582;2023-11-25T06:45:56;102113.56;;;0.12;46.57
79006;BME280;69202;45.498;-73.582;2023-11-25T06:48:23;102107.47;;;0.10;46.97
79006;BME280;69202;45.498;-73.582;2023-11-25T06:50:51;102106.28;;;0.01;46.33
79006;BME280;69202;45.498;-73.582;2023-11-25T06:53:17;102109.50;;;-0.08;45.83
79006;BME280;69202;45.498;-73.582;2023-11-25T06:55:43;102116.16;;;-0.15;46.73
79006;BME280;69202;45.498;-73.582;2023-11-25T06:58:11;102111.22;;;-0.21;46.63
79006;BME280;69202;45.498;-73.582;2023-11-25T07:00:39;102111.50;;;-0.26;46.21
79006;BME280;69202;45.498;-73.582;2023-11-25T07:03:07;102113.41;;;-0.28;46.12
79006;BME280;69202;45.498;-73.582;2023-11-25T07:05:41;102125.16;;;-0.32;46.35
79006;BME280;69202;45.498;-73.582;2023-11-25T07:08:07;102125.94;;;-0.30;46.68
79006;BME280;69202;45.498;-73.582;2023-11-25T07:10:33;102122.34;;;-0.29;47.15
79006;BME280;69202;45.498;-73.582;2023-11-25T07:13:04;102133.41;;;-0.22;47.87
79006;BME280;69202;45.498;-73.582;2023-11-25T07:15:30;102126.13;;;-0.19;48.44
79006;BME280;69202;45.498;-73.582;2023-11-25T07:17:57;102129.25;;;-0.12;47.99
79006;BME280;69202;45.498;-73.582;2023-11-25T07:20:23;102135.69;;;-0.02;49.15
79006;BME280;69202;45.498;-73.582;2023-11-25T07:22:49;102131.81;;;0.04;48.94
79006;BME280;69202;45.498;-73.582;2023-11-25T07:25:16;102134.66;;;0.15;49.08
79006;BME280;69202;45.498;-73.582;2023-11-25T07:27:44;102133.78;;;0.14;48.49
79006;BME280;69202;45.498;-73.582;2023-11-25T07:30:12;102143.16;;;0.20;49.19
79006;BME280;69202;45.498;-73.582;2023-11-25T07:32:38;102106.44;;;-0.02;47.86
79006;BME280;69202;45.498;-73.582;2023-11-25T07:35:05;102141.41;;;0.06;47.13
79006;BME280;69202;45.498;-73.582;2023-11-25T07:37:34;102132.19;;;-0.03;47.25
79006;BME280;69202;45.498;-73.582;2023-11-25T07:40:04;102134.28;;;-0.08;48.21
79006;BME280;69202;45.498;-73.582;2023-11-25T07:42:35;102129.44;;;-0.15;47.21
79006;BME280;69202;45.498;-73.582;2023-11-25T07:45:01;102135.06;;;-0.20;46.66
79006;BME280;69202;45.498;-73.582;2023-11-25T07:47:27;102138.94;;;-0.25;47.31
79006;BME280;69202;45.498;-73.582;2023-11-25T07:49:53;102141.41;;;-0.22;47.01
79006;BME280;69202;45.498;-73.582;2023-11-25T07:52:19;102127.25;;;-0.23;46.99
79006;BME280;69202;45.498;-73.582;2023-11-25T07:54:46;102127.00;;;-0.18;47.34
79006;BME280;69202;45.498;-73.582;2023-11-25T07:57:12;102129.53;;;-0.17;47.62
79006;BME280;69202;45.498;-73.582;2023-11-25T07:59:38;102124.22;;;-0.17;48.13
79006;BME280;69202;45.498;-73.582;2023-11-25T08:02:04;102121.16;;;-0.11;47.56
79006;BME280;69202;45.498;-73.582;2023-11-25T08:04:30;102134.28;;;-0.08;47.51
79006;BME280;69202;45.498;-73.582;2023-11-25T08:06:56;102128.97;;;-0.08;47.58
79006;BME280;69202;45.498;-73.582;2023-11-25T08:09:21;102123.47;;;-0.05;47.92
79006;BME280;69202;45.498;-73.582;2023-11-25T08:11:50;102124.78;;;-0.12;47.59
79006;BME280;69202;45.498;-73.582;2023-11-25T08:14:16;102140.34;;;-0.06;47.25
79006;BME280;69202;45.498;-73.582;2023-11-25T08:16:43;102137.50;;;-0.03;48.52
79006;BME280;69202;45.498;-73.582;2023-11-25T08:19:09;102136.94;;;0.07;48.27
79006;BME280;69202;45.498;-73.582;2023-11-25T08:21:36;102128.75;;;0.10;49.43
79006;BME280;69202;45.498;-73.582;2023-11-25T08:24:02;102121.44;;;0.13;47.50
79006;BME280;69202;45.498;-73.582;2023-11-25T08:26:28;102132.38;;;0.09;48.13
79006;BME280;69202;45.498;-73.582;2023-11-25T08:28:55;102129.69;;;0.09;48.19
79006;BME280;69202;45.498;-73.582;2023-11-25T08:31:21;102130.09;;;0.17;49.13
79006;BME280;69202;45.498;-73.582;2023-11-25T08:33:49;102129.13;;;0.18;48.48
79006;BME280;69202;45.498;-73.582;2023-11-25T08:36:16;102131.63;;;0.21;48.77
79006;BME280;69202;45.498;-73.582;2023-11-25T08:38:46;102135.28;;;0.33;49.86
79006;BME280;69202;45.498;-73.582;2023-11-25T08:41:16;102131.94;;;0.43;49.14
79006;BME280;69202;45.498;-73.582;2023-11-25T08:43:42;102117.63;;;0.32;48.20
79006;BME280;69202;45.498;-73.582;2023-11-25T08:46:14;102129.75;;;0.36;48.16
79006;BME280;69202;45.498;-73.582;2023-11-25T08:48:46;102126.53;;;0.31;47.97
79006;BME280;69202;45.498;-73.582;2023-11-25T08:51:11;102116.00;;;0.29;47.89
79006;BME280;69202;45.498;-73.582;2023-11-25T08:53:40;102126.72;;;0.27;47.32
79006;BME280;69202;45.498;-73.582;2023-11-25T08:56:10;102125.50;;;0.19;47.25
79006;BME280;69202;45.498;-73.582;2023-11-25T08:58:36;102108.53;;;0.07;47.53
79006;BME280;69202;45.498;-73.582;2023-11-25T09:01:03;102133.59;;;0.17;47.50
79006;BME280;69202;45.498;-73.582;2023-11-25T09:03:31;102136.94;;;0.21;47.38
79006;BME280;69202;45.498;-73.582;2023-11-25T09:05:59;102097.72;;;-0.04;47.36
79006;BME280;69202;45.498;-73.582;2023-11-25T09:08:25;102112.25;;;0.05;47.94
79006;BME280;69202;45.498;-73.582;2023-11-25T09:10:51;102133.59;;;0.17;48.68
79006;BME280;69202;45.498;-73.582;2023-11-25T09:13:17;102124.47;;;0.21;48.39
79006;BME280;69202;45.498;-73.582;2023-11-25T09:15:43;102115.94;;;0.16;47.88
79006;BME280;69202;45.498;-73.582;2023-11-25T09:18:09;102125.78;;;0.28;48.58
79006;BME280;69202;45.498;-73.582;2023-11-25T09:20:35;102117.81;;;0.28;48.81
79006;BME280;69202;45.498;-73.582;2023-11-25T09:23:01;102112.09;;;0.35;48.07
79006;BME280;69202;45.498;-73.582;2023-11-25T09:25:29;102091.41;;;0.25;48.22
79006;BME280;69202;45.498;-73.582;2023-11-25T09:27:56;102085.13;;;0.26;47.86
79006;BME280;69202;45.498;-73.582;2023-11-25T09:30:22;102102.78;;;0.42;48.67
79006;BME280;69202;45.498;-73.582;2023-11-25T09:32:48;102069.19;;;0.26;48.49
79006;BME280;69202;45.498;-73.582;2023-11-25T09:35:14;102097.16;;;0.46;47.54
79006;BME280;69202;45.498;-73.582;2023-11-25T09:37:41;102095.44;;;0.45;48.17
79006;BME280;69202;45.498;-73.582;2023-11-25T09:40:09;102098.00;;;0.47;47.81
79006;BME280;69202;45.498;-73.582;2023-11-25T09:42:43;102078.56;;;0.32;47.88
79006;BME280;69202;45.498;-73.582;2023-11-25T09:45:11;102097.78;;;0.50;47.92
79006;BME280;69202;45.498;-73.582;2023-11-25T09:47:38;102096.75;;;0.52;48.33
79006;BME280;69202;45.498;-73.582;2023-11-25T09:50:05;102096.66;;;0.54;48.03
79006;BME280;69202;45.498;-73.582;2023-11-25T09:52:36;102096.09;;;0.49;48.01
79006;BME280;69202;45.498;-73.582;2023-11-25T09:55:04;102090.88;;;0.47;47.60
79006;BME280;69202;45.498;-73.582;2023-11-25T09:57:30;102068.59;;;0.36;47.97
79006;BME280;69202;45.498;-73.582;2023-11-25T10:00:05;102090.88;;;0.47;47.86
79006;BME280;69202;45.498;-73.582;2023-11-25T10:02:37;102079.75;;;0.41;47.45
79006;BME280;69202;45.498;-73.582;2023-11-25T10:05:05;102082.84;;;0.35;47.85
79006;BME280;69202;45.498;-73.582;2023-11-25T10:07:31;102090.13;;;0.31;48.36
79006;BME280;69202;45.498;-73.582;2023-11-25T10:09:58;102090.06;;;0.33;48.34
79006;BME280;69202;45.498;-73.582;2023-11-25T10:12:25;102090.72;;;0.36;48.40
79006;BME280;69202;45.498;-73.582;2023-11-25T10:14:51;102067.56;;;0.24;48.50
79006;BME280;69202;45.498;-73.582;2023-11-25T10:17:21;102091.25;;;0.41;48.88
79006;BME280;69202;45.498;-73.582;2023-11-25T10:19:48;102102.00;;;0.40;48.21
79006;BME280;69202;45.498;-73.582;2023-11-25T10:22:15;102099.91;;;0.45;49.07
79006;BME280;69202;45.498;-73.582;2023-11-25T10:24:47;102104.28;;;0.46;48.55
79006;BME280;69202;45.498;-73.582;2023-11-25T10:27:19;102093.38;;;0.36;48.37
79006;BME280;69202;45.498;-73.582;2023-11-25T10:29:48;102091.34;;;0.40;48.70
79006;BME280;69202;45.498;-73.582;2023-11-25T10:32:15;102101.00;;;0.28;48.77
79006;BME280;69202;45.498;-73.582;2023-11-25T10:34:41;102105.47;;;0.27;49.20
79006;BME280;69202;45.498;-73.582;2023-11-25T10:37:08;102110.50;;;0.32;49.76
79006;BME280;69202;45.498;-73.582;2023-11-25T10:39:35;102105.72;;;0.37;49.95
79006;BME280;69202;45.498;-73.582;2023-11-25T10:42:03;102105.44;;;0.42;50.13
79006;BME280;69202;45.498;-73.582;2023-11-25T10:44:37;102108.63;;;0.47;50.58
79006;BME280;69202;45.498;-73.582;2023-11-25T10:47:31;102115.56;;;0.49;50.67
79006;BME280;69202;45.498;-73.582;2023-11-25T10:49:59;102095.69;;;0.55;50.59
79006;BME280;69202;45.498;-73.582;2023-11-25T10:52:32;102106.34;;;0.55;50.72
79006;BME280;69202;45.498;-73.582;2023-11-25T10:55:02;102089.69;;;0.51;50.16
79006;BME280;69202;45.498;-73.582;2023-11-25T10:57:31;102095.22;;;0.48;50.43
79006;BME280;69202;45.498;-73.582;2023-11-25T10:59:59;102095.97;;;0.50;50.43
79006;BME280;69202;45.498;-73.582;2023-11-25T11:02:29;102098.03;;;0.60;51.60
79006;BME280;69202;45.498;-73.582;2023-11-25T11:05:08;102097.94;;;0.61;50.79
79006;BME280;69202;45.498;-73.582;2023-11-25T11:07:52;102095.47;;;0.58;50.36
79006;BME280;69202;45.498;-73.582;2023-11-25T11:10:41;102086.41;;;0.48;50.45
79006;BME280;69202;45.498;-73.582;2023-11-25T11:13:12;102068.63;;;0.48;51.64
79006;BME280;69202;45.498;-73.582;2023-11-25T11:15:43;102099.72;;;0.88;52.73
79006;BME280;69202;45.498;-73.582;2023-11-25T11:18:19;102114.03;;;0.99;52.90
79006;BME280;69202;45.498;-73.582;2023-11-25T11:20:48;102111.47;;;0.98;51.69
79006;BME280;69202;45.498;-73.582;2023-11-25T11:23:21;102103.47;;;0.98;52.08
79006;BME280;69202;45.498;-73.582;2023-11-25T11:34:10;102120.81;;;1.68;55.13
79006;BME280;69202;45.498;-73.582;2023-11-25T11:36:36;102127.72;;;1.84;57.11
79006;BME280;69202;45.498;-73.582;2023-11-25T11:39:02;102128.25;;;2.01;57.50
79006;BME280;69202;45.498;-73.582;2023-11-25T11:41:28;102111.41;;;2.01;55.94
79006;BME280;69202;45.498;-73.582;2023-11-25T11:44:08;102114.56;;;2.06;55.45
79006;BME280;69202;45.498;-73.582;2023-11-25T11:46:37;102123.13;;;1.98;54.80
79006;BME280;69202;45.498;-73.582;2023-11-25T11:49:13;102109.25;;;1.93;53.44
79006;BME280;69202;45.498;-73.582;2023-11-25T11:52:00;102106.72;;;1.92;53.09
79006;BME280;69202;45.498;-73.582;2023-11-25T11:54:27;102102.75;;;1.85;52.33
79006;BME280;69202;45.498;-73.582;2023-11-25T11:57:02;102107.69;;;1.91;53.02
79006;BME280;69202;45.498;-73.582;2023-11-25T12:02:32;102099.13;;;1.98;54.22
79006;BME280;69202;45.498;-73.582;2023-11-25T12:05:10;102096.47;;;1.98;52.71
79006;BME280;69202;45.498;-73.582;2023-11-25T12:07:36;102098.25;;;1.98;53.39
79006;BME280;69202;45.498;-73.582;2023-11-25T12:10:03;102094.63;;;2.12;54.90
79006;BME280;69202;45.498;-73.582;2023-11-25T12:12:31;102087.59;;;2.11;53.82
79006;BME280;69202;45.498;-73.582;2023-11-25T12:14:57;102090.69;;;2.05;53.11
79006;BME280;69202;45.498;-73.582;2023-11-25T12:17:23;102099.66;;;2.03;53.83
79006;BME280;69202;45.498;-73.582;2023-11-25T12:19:52;102094.53;;;2.00;53.28
79006;BME280;69202;45.498;-73.582;2023-11-25T12:22:18;102107.53;;;2.05;53.58
79006;BME280;69202;45.498;-73.582;2023-11-25T12:24:44;102103.03;;;2.06;53.36
79006;BME280;69202;45.498;-73.582;2023-11-25T12:27:12;102109.78;;;2.11;54.25
79006;BME280;69202;45.498;-73.582;2023-11-25T12:29:40;102106.25;;;2.11;53.10
79006;BME280;69202;45.498;-73.582;2023-11-25T12:32:06;102096.75;;;2.07;54.00
79006;BME280;69202;45.498;-73.582;2023-11-25T12:34:32;102108.25;;;2.20;54.87
79006;BME280;69202;45.498;-73.582;2023-11-25T12:36:59;102100.22;;;2.33;55.23
79006;BME280;69202;45.498;-73.582;2023-11-25T12:39:26;102101.69;;;2.37;54.80
79006;BME280;69202;45.498;-73.582;2023-11-25T12:41:53;102109.31;;;2.54;56.26
79006;BME280;69202;45.498;-73.582;2023-11-25T12:44:19;102082.69;;;3.11;55.37
79006;BME280;69202;45.498;-73.582;2023-11-25T12:47:02;102094.69;;;2.95;53.25
79006;BME280;69202;45.498;-73.582;2023-11-25T12:49:34;102060.84;;;2.71;53.91
79006;BME280;69202;45.498;-73.582;2023-11-25T12:52:01;102085.66;;;2.84;54.32